Sault Sainte Marie, MI

2:52 AM EST on February 01, 2015 (GMT -0500)
Drummond Island | Change Station
CLOSE
Current Station
Airport
Location: Drummond Island,
Elevation: 669 ft
Nearby Weather Stations

Elev 669 ft 46.01 °N, 83.74 °W | Updated 17 minutes ago

Partly Cloudy
Partly Cloudy
-1 °F
Feels Like -13 °F
N
6
Wind Variable Wind from NNE

Today
High -- | Low -- °F
--% Chance of Precip.
Yesterday
High -- | Low -- °F
Precip. -- in
8:01 AM 5:41 PM
Waxing Gibbous, 94% visible
Pressure 30.33 in
Visibility 10.0 miles
Clouds Clear
Windchill -13 °F
Dew Point -9 °F
Humidity 69%
Rainfall 0.00 in
Snow Depth Not available.
UV 0 out of 12
Pollen .10 out of 12
Air Quality Not available.
Flu Activity Not available.
METAR KDRM 010735Z AUTO 02005KT 10SM CLR M18/M23 A3033 RMK AO2 T11851230

More Conditions Fewer Conditions

Pressure 30.33 in
Visibility 10.0 miles
Clouds Clear
Windchill -13 °F
Dew Point -9 °F
Humidity 69%
Rainfall 0.00 in
Snow Depth Not available.
UV 0 out of 12
Pollen .10 out of 12
Air Quality Not available.
Flu Activity Not available.
METAR KDRM 010735Z AUTO 02005KT 10SM CLR M18/M23 A3033 RMK AO2 T11851230

More Conditions Fewer Conditions

Nowcast | as of 2:00 am EST on February 1, 2015

Mostly cloudy. Mostly cloudy. At 7 am...mostly cloudy. Temperature 12 below. Light winds. Mostly cloudy.

×

10-Day Weather Forecast

Almanac

Astronomy

Feb. 01, 2015 Rise Set
Actual Time
Civil Twilight
Nautical Twilight
Astronomical Twilight
Moon
Length of Visible Light
Length of Day
Tomorrow will be .
, % of the Moon is Illuminated

Today's Extremes

State Highs State Lows

Community

WunderPhotos

Upload Photos

1,792,327 photos uploaded!

WunderBlogs® & News

Nearby

Air Quality

  Air Quality AQ Index Pollutant
Not available.

Snow Depth

Station Depth Elevation

Earthquake Activity

City Distance Mag. Time & Date
Minimum magnitude displayed is 2.5.

Coastal Water Temperatures

Place Temperature

Nearby Weather Stations